createdAt,value
2022-08-25T00:00:45.845Z,94.19
2022-08-25T00:01:45.830Z,94.29
2022-08-25T00:02:55.144Z,94.29
2022-08-25T00:03:46.841Z,94.39
2022-08-25T00:04:45.796Z,94.29
2022-08-25T00:05:46.858Z,94.29
2022-08-25T00:06:45.768Z,94.29
2022-08-25T00:07:45.753Z,94.19
2022-08-25T00:08:45.739Z,94.29
2022-08-25T00:09:45.732Z,94.39
2022-08-25T00:10:45.711Z,94.49
2022-08-25T00:11:46.736Z,94.49
2022-08-25T00:12:45.692Z,94.19
2022-08-25T00:13:45.676Z,94.19
2022-08-25T00:14:45.664Z,94.39
2022-08-25T00:15:45.725Z,94.59
2022-08-25T00:16:45.634Z,94.49
2022-08-25T00:17:45.621Z,94.59
2022-08-25T00:18:45.614Z,94.59
2022-08-25T00:19:45.598Z,94.49
2022-08-25T00:20:49.174Z,94.59
2022-08-25T00:21:45.569Z,94.49
2022-08-25T00:22:45.558Z,94.39
2022-08-25T00:23:45.545Z,94.49
2022-08-25T00:24:45.532Z,94.70
2022-08-25T00:25:45.519Z,94.59
2022-08-25T00:26:45.507Z,94.70
2022-08-25T00:27:45.846Z,94.90
2022-08-25T00:28:45.481Z,95.04
2022-08-25T00:29:45.472Z,95.14
2022-08-25T00:30:45.513Z,95.04
2022-08-25T00:31:45.547Z,95.04
2022-08-25T00:32:48.928Z,95.04
2022-08-25T00:33:46.447Z,94.94
2022-08-25T00:34:45.403Z,94.94
2022-08-25T00:35:45.387Z,94.94
2022-08-25T00:36:45.378Z,94.74
2022-08-25T00:37:45.371Z,94.74
2022-08-25T00:38:45.351Z,94.74
2022-08-25T00:39:45.351Z,94.84
2022-08-25T00:40:45.328Z,94.94
2022-08-25T00:41:45.311Z,95.04
2022-08-25T00:42:45.299Z,95.35
2022-08-25T00:43:45.290Z,95.35
2022-08-25T00:44:45.456Z,95.59
2022-08-25T00:45:45.262Z,95.59
2022-08-25T00:46:45.250Z,95.70
2022-08-25T00:47:45.235Z,95.79
2022-08-25T00:48:45.223Z,95.79
2022-08-25T00:49:45.207Z,95.70
2022-08-25T00:50:45.196Z,95.50
2022-08-25T00:51:45.188Z,95.45
2022-08-25T00:52:45.168Z,95.59
2022-08-25T00:53:45.158Z,95.55
2022-08-25T00:54:45.147Z,95.45
2022-08-25T00:55:45.130Z,95.25
2022-08-25T00:56:45.114Z,95.19
2022-08-25T00:57:45.106Z,95.25
2022-08-25T00:58:45.091Z,95.25
2022-08-25T00:59:45.079Z,95.29
2022-08-25T01:00:45.070Z,95.39
2022-08-25T01:01:45.101Z,95.45
2022-08-25T01:02:45.196Z,95.45
2022-08-25T01:03:45.031Z,95.55
2022-08-25T01:04:48.682Z,95.39
2022-08-25T01:05:45.002Z,95.29
2022-08-25T01:06:45.002Z,95.50
2022-08-25T01:07:44.979Z,95.59
2022-08-25T01:08:44.963Z,95.50
2022-08-25T01:09:44.954Z,95.70
2022-08-25T01:10:44.939Z,95.79
2022-08-25T01:11:44.925Z,95.79
2022-08-25T01:12:44.912Z,95.79
2022-08-25T01:13:44.899Z,95.59
2022-08-25T01:14:44.888Z,95.59
2022-08-25T01:15:44.959Z,95.50
2022-08-25T01:16:44.864Z,95.54
2022-08-25T01:17:44.847Z,95.54
2022-08-25T01:18:44.832Z,95.43
2022-08-25T01:19:44.825Z,95.54
2022-08-25T01:20:44.816Z,95.54
2022-08-25T01:21:44.796Z,95.64
2022-08-25T01:22:44.788Z,95.64
2022-08-25T01:23:44.772Z,95.64
2022-08-25T01:24:44.757Z,95.64
2022-08-25T01:25:44.743Z,95.23
2022-08-25T01:26:44.737Z,95.13
2022-08-25T01:27:44.721Z,95.23
2022-08-25T01:28:44.708Z,95.43
2022-08-25T01:29:44.697Z,95.43
2022-08-25T01:30:44.730Z,95.43
2022-08-25T01:31:44.666Z,95.43
2022-08-25T01:32:44.655Z,95.43
2022-08-25T01:33:44.641Z,95.54
2022-08-25T01:34:44.627Z,95.64
2022-08-25T01:35:44.612Z,95.84
2022-08-25T01:36:44.604Z,96.15
2022-08-25T01:37:44.591Z,96.45
2022-08-25T01:38:44.578Z,96.35
2022-08-25T01:39:44.628Z,96.35
2022-08-25T01:40:44.549Z,96.25
2022-08-25T01:41:44.539Z,96.25
2022-08-25T01:42:44.523Z,96.25
2022-08-25T01:43:44.513Z,96.15
2022-08-25T01:44:44.498Z,96.35
2022-08-25T01:45:44.529Z,96.25
2022-08-25T01:46:44.471Z,96.15
2022-08-25T01:47:44.459Z,96.04
2022-08-25T01:48:44.449Z,95.84
2022-08-25T01:49:44.433Z,95.74
2022-08-25T01:50:44.424Z,95.54
2022-08-25T01:51:44.422Z,95.54
2022-08-25T01:52:44.395Z,95.74
2022-08-25T01:53:44.378Z,95.84
2022-08-25T01:54:44.367Z,95.84
2022-08-25T01:55:44.355Z,95.94
2022-08-25T01:56:44.344Z,95.84
2022-08-25T01:57:44.329Z,95.84
2022-08-25T01:58:44.316Z,96.09
2022-08-25T01:59:44.305Z,96.09
2022-08-25T02:00:44.295Z,96.09
2022-08-25T02:01:44.327Z,96.09
2022-08-25T02:02:44.319Z,96.09
2022-08-25T02:03:44.259Z,96.19
2022-08-25T02:04:44.367Z,96.50
2022-08-25T02:05:44.231Z,96.70
2022-08-25T02:06:44.220Z,97.00
2022-08-25T02:07:44.200Z,97.00
2022-08-25T02:08:44.188Z,97.00
2022-08-25T02:09:44.175Z,97.00
2022-08-25T02:10:44.163Z,97.00
2022-08-25T02:11:44.148Z,97.00
2022-08-25T02:12:44.137Z,97.00
2022-08-25T02:13:44.123Z,96.90
2022-08-25T02:14:44.117Z,96.80
2022-08-25T02:15:44.097Z,96.80
2022-08-25T02:16:44.211Z,96.70
2022-08-25T02:17:44.071Z,96.70
2022-08-25T02:18:44.069Z,96.90
2022-08-25T02:19:44.054Z,96.90
2022-08-25T02:20:44.038Z,96.80
2022-08-25T02:21:44.021Z,96.90
2022-08-25T02:22:45.074Z,96.90
2022-08-25T02:23:45.027Z,96.80
2022-08-25T02:24:43.985Z,96.60
2022-08-25T02:25:43.968Z,96.50
2022-08-25T02:26:43.969Z,96.50
2022-08-25T02:27:43.942Z,96.39
2022-08-25T02:28:43.941Z,96.39
2022-08-25T02:29:43.921Z,96.39
2022-08-25T02:30:43.997Z,96.39
2022-08-25T02:31:43.898Z,96.39
2022-08-25T02:32:43.879Z,96.50
2022-08-25T02:33:43.869Z,96.60
2022-08-25T02:34:43.856Z,96.60
2022-08-25T02:35:43.844Z,96.70
2022-08-25T02:36:43.825Z,96.70
2022-08-25T02:37:43.811Z,96.70
2022-08-25T02:38:43.805Z,96.60
2022-08-25T02:39:43.791Z,96.60
2022-08-25T02:40:43.775Z,96.84
2022-08-25T02:41:43.766Z,96.84
2022-08-25T02:42:43.749Z,96.75
2022-08-25T02:43:43.748Z,96.75
2022-08-25T02:44:43.724Z,96.90
2022-08-25T02:45:43.784Z,96.90
2022-08-25T02:46:43.698Z,97.00
2022-08-25T02:47:43.689Z,97.00
2022-08-25T02:48:43.676Z,97.25
2022-08-25T02:49:43.670Z,97.45
2022-08-25T02:50:43.645Z,97.66
2022-08-25T02:51:43.636Z,97.76
2022-08-25T02:52:43.628Z,97.96
2022-08-25T02:53:43.609Z,98.37
2022-08-25T02:54:43.608Z,98.57
2022-08-25T02:55:43.586Z,98.88
2022-08-25T02:56:44.250Z,98.97
2022-08-25T02:57:43.561Z,98.97
2022-08-25T02:58:43.551Z,99.18
2022-08-25T02:59:43.531Z,99.28
2022-08-25T03:00:43.582Z,99.18
2022-08-25T03:01:43.506Z,99.18
2022-08-25T03:02:43.492Z,99.13
2022-08-25T03:03:43.728Z,99.13
2022-08-25T03:04:43.552Z,99.04
2022-08-25T03:05:43.452Z,98.63
2022-08-25T03:06:43.439Z,98.32
2022-08-25T03:07:43.430Z,97.92
2022-08-25T03:08:43.418Z,97.51
2022-08-25T03:09:43.406Z,97.05
2022-08-25T03:10:43.395Z,96.84
2022-08-25T03:11:43.375Z,96.95
2022-08-25T03:12:43.382Z,97.15
2022-08-25T03:13:43.358Z,97.15
2022-08-25T03:14:43.348Z,96.95
2022-08-25T03:15:43.324Z,96.64
2022-08-25T03:16:46.302Z,96.64
2022-08-25T03:17:43.816Z,96.54
2022-08-25T03:18:43.286Z,96.75
2022-08-25T03:19:43.273Z,96.84
2022-08-25T03:20:43.266Z,96.84
2022-08-25T03:21:43.254Z,96.84
2022-08-25T03:22:43.239Z,96.84
2022-08-25T03:23:43.223Z,96.95
2022-08-25T03:24:43.208Z,96.90
2022-08-25T03:25:43.195Z,96.95
2022-08-25T03:26:43.197Z,96.95
2022-08-25T03:27:43.168Z,97.05
2022-08-25T03:28:43.155Z,97.15
2022-08-25T03:29:43.151Z,97.25
2022-08-25T03:30:43.131Z,97.45
2022-08-25T03:31:43.209Z,97.45
2022-08-25T03:32:43.103Z,97.45
2022-08-25T03:33:43.105Z,97.45
2022-08-25T03:34:43.084Z,97.35
2022-08-25T03:35:43.068Z,97.40
2022-08-25T03:36:43.053Z,97.40
2022-08-25T03:37:43.043Z,97.80
2022-08-25T03:38:43.030Z,98.11
2022-08-25T03:39:43.044Z,98.27
2022-08-25T03:40:43.001Z,98.62
2022-08-25T03:41:42.989Z,98.77
2022-08-25T03:42:44.962Z,98.77
2022-08-25T03:43:42.962Z,99.02
2022-08-25T03:44:42.950Z,99.08
2022-08-25T03:45:42.993Z,99.08
2022-08-25T03:46:42.922Z,99.08
2022-08-25T03:47:42.911Z,98.97
2022-08-25T03:48:42.903Z,98.88
2022-08-25T03:49:42.884Z,98.57
2022-08-25T03:50:42.873Z,98.21
2022-08-25T03:51:42.860Z,97.91
2022-08-25T03:52:42.932Z,97.60
2022-08-25T03:53:42.837Z,97.50
2022-08-25T03:54:42.822Z,97.40
2022-08-25T03:55:42.809Z,97.30
2022-08-25T03:56:42.799Z,97.20
2022-08-25T03:57:42.784Z,97.30
2022-08-25T03:58:42.771Z,97.50
2022-08-25T03:59:42.758Z,97.80
2022-08-25T04:00:42.780Z,97.96
2022-08-25T04:01:42.733Z,98.01
2022-08-25T04:02:42.758Z,98.11
2022-08-25T04:03:42.707Z,98.11
2022-08-25T04:04:42.701Z,98.11
2022-08-25T04:05:42.682Z,98.01
2022-08-25T04:06:42.668Z,97.91
2022-08-25T04:07:42.660Z,97.91
2022-08-25T04:08:42.651Z,97.71
2022-08-25T04:09:42.630Z,97.60
2022-08-25T04:10:42.620Z,97.30
2022-08-25T04:11:42.837Z,97.09
2022-08-25T04:12:42.595Z,97.09
2022-08-25T04:13:42.580Z,97.30
2022-08-25T04:14:42.567Z,97.20
2022-08-25T04:15:42.553Z,97.20
2022-08-25T04:16:42.630Z,97.20
2022-08-25T04:17:42.532Z,97.30
2022-08-25T04:18:42.523Z,97.30
2022-08-25T04:19:42.510Z,97.34
2022-08-25T04:20:46.550Z,97.30
2022-08-25T04:21:42.479Z,97.24
2022-08-25T04:22:44.831Z,97.34
2022-08-25T04:23:42.453Z,97.34
2022-08-25T04:24:42.445Z,97.44
2022-08-25T04:25:42.432Z,97.44
2022-08-25T04:26:42.416Z,97.44
2022-08-25T04:27:42.402Z,97.44
2022-08-25T04:28:42.388Z,97.44
2022-08-25T04:29:42.381Z,97.34
2022-08-25T04:30:42.362Z,97.30
2022-08-25T04:31:42.438Z,97.24
2022-08-25T04:32:42.334Z,97.04
2022-08-25T04:33:42.334Z,97.04
2022-08-25T04:34:42.311Z,97.04
2022-08-25T04:35:42.298Z,97.24
2022-08-25T04:36:42.292Z,97.34
2022-08-25T04:37:42.273Z,97.34
2022-08-25T04:38:42.261Z,97.34
2022-08-25T04:39:42.251Z,97.14
2022-08-25T04:40:42.235Z,97.14
2022-08-25T04:41:42.228Z,97.14
2022-08-25T04:42:42.208Z,97.14
2022-08-25T04:43:42.196Z,97.04
2022-08-25T04:44:42.185Z,97.04
2022-08-25T04:45:42.260Z,97.24
2022-08-25T04:46:42.162Z,97.34
2022-08-25T04:47:42.149Z,97.24
2022-08-25T04:48:42.132Z,97.14
2022-08-25T04:49:42.120Z,97.14
2022-08-25T04:50:42.108Z,97.04
2022-08-25T04:51:42.094Z,97.24
2022-08-25T04:52:42.082Z,97.34
2022-08-25T04:53:42.069Z,97.55
2022-08-25T04:54:42.074Z,97.24
2022-08-25T04:55:42.049Z,97.04
2022-08-25T04:56:42.028Z,96.83
2022-08-25T04:57:42.015Z,96.83
2022-08-25T04:58:42.005Z,96.94
2022-08-25T04:59:41.991Z,97.04
2022-08-25T05:00:42.054Z,97.04
2022-08-25T05:01:41.971Z,97.04
2022-08-25T05:02:41.963Z,97.24
2022-08-25T05:03:41.940Z,97.24
2022-08-25T05:04:42.011Z,96.83
2022-08-25T05:05:41.914Z,96.63
2022-08-25T05:06:41.908Z,96.63
2022-08-25T05:07:41.889Z,96.63
2022-08-25T05:08:41.885Z,96.83
2022-08-25T05:09:41.866Z,96.94
2022-08-25T05:10:42.013Z,96.94
2022-08-25T05:11:41.834Z,96.94
2022-08-25T05:12:41.828Z,96.83
2022-08-25T05:13:41.811Z,96.73
2022-08-25T05:14:41.798Z,96.73
2022-08-25T05:15:41.791Z,96.73
2022-08-25T05:16:41.861Z,96.63
2022-08-25T05:17:41.762Z,96.73
2022-08-25T05:18:41.749Z,96.73
2022-08-25T05:19:41.739Z,96.73
2022-08-25T05:20:41.723Z,96.79
2022-08-25T05:21:41.713Z,96.89
2022-08-25T05:22:41.700Z,96.59
2022-08-25T05:23:41.687Z,96.38
2022-08-25T05:24:41.673Z,96.18
2022-08-25T05:25:41.660Z,96.48
2022-08-25T05:26:41.646Z,96.38
2022-08-25T05:27:41.733Z,96.14
2022-08-25T05:28:41.621Z,95.94
2022-08-25T05:29:41.608Z,95.58
2022-08-25T05:30:41.596Z,95.18
2022-08-25T05:31:44.889Z,95.18
2022-08-25T05:32:41.570Z,94.62
2022-08-25T05:33:41.556Z,94.32
2022-08-25T05:34:41.552Z,94.07
2022-08-25T05:35:41.530Z,93.22
2022-08-25T05:36:41.521Z,92.82
2022-08-25T05:37:41.508Z,91.96
2022-08-25T05:38:41.497Z,91.00
2022-08-25T05:39:41.479Z,89.91
2022-08-25T05:40:41.466Z,88.55
2022-08-25T05:41:41.453Z,86.85
2022-08-25T05:42:41.441Z,84.75
2022-08-25T05:43:41.429Z,82.51
2022-08-25T05:44:41.420Z,79.82
2022-08-25T05:45:41.474Z,77.63
2022-08-25T05:46:41.392Z,75.71
2022-08-25T05:47:41.383Z,73.20
2022-08-25T05:48:41.369Z,70.83
2022-08-25T05:49:41.360Z,68.73
2022-08-25T05:50:41.340Z,66.63
2022-08-25T05:51:41.324Z,64.57
2022-08-25T05:52:41.319Z,63.41
2022-08-25T05:53:41.303Z,62.15
2022-08-25T05:54:41.287Z,61.13
2022-08-25T05:55:41.278Z,61.06
2022-08-25T05:56:41.266Z,62.51
2022-08-25T05:57:41.256Z,64.10
2022-08-25T05:58:41.237Z,66.19
2022-08-25T05:59:41.230Z,67.86
2022-08-25T06:00:41.291Z,69.62
2022-08-25T06:01:43.295Z,71.20
2022-08-25T06:02:41.189Z,72.03
2022-08-25T06:03:41.225Z,72.53
2022-08-25T06:04:41.460Z,71.50
2022-08-25T06:05:41.148Z,70.19
2022-08-25T06:06:41.138Z,67.36
2022-08-25T06:07:41.128Z,65.44
2022-08-25T06:08:41.115Z,62.42
2022-08-25T06:09:41.098Z,60.05
2022-08-25T06:10:41.088Z,58.07
2022-08-25T06:11:41.076Z,56.23
2022-08-25T06:12:41.062Z,55.16
2022-08-25T06:13:41.046Z,53.53
2022-08-25T06:14:41.034Z,52.81
2022-08-25T06:15:41.024Z,51.99
2022-08-25T06:16:41.032Z,51.54
2022-08-25T06:17:41.002Z,50.51
2022-08-25T06:18:40.987Z,49.62
2022-08-25T06:19:41.346Z,48.93
2022-08-25T06:20:40.960Z,49.43
2022-08-25T06:21:40.943Z,49.03
2022-08-25T06:22:40.931Z,49.15
2022-08-25T06:23:40.936Z,49.84
2022-08-25T06:24:40.904Z,49.87
2022-08-25T06:25:40.897Z,50.43
2022-08-25T06:26:40.879Z,48.93
2022-08-25T06:27:40.875Z,49.74
2022-08-25T06:28:40.857Z,49.20
2022-08-25T06:29:40.835Z,48.66
2022-08-25T06:30:40.826Z,48.14
2022-08-25T06:31:40.874Z,47.51
2022-08-25T06:32:40.800Z,46.72
2022-08-25T06:33:40.791Z,46.38
2022-08-25T06:34:40.772Z,45.57
2022-08-25T06:35:40.763Z,45.38
2022-08-25T06:36:40.756Z,45.26
2022-08-25T06:37:40.741Z,44.94
2022-08-25T06:38:40.727Z,44.74
2022-08-25T06:39:40.713Z,44.53
2022-08-25T06:40:40.700Z,44.43
2022-08-25T06:41:40.685Z,44.62
2022-08-25T06:42:40.674Z,44.82
2022-08-25T06:43:45.005Z,45.70
2022-08-25T06:44:41.689Z,45.90
2022-08-25T06:45:40.626Z,45.61
2022-08-25T06:46:40.653Z,45.90
2022-08-25T06:47:40.604Z,45.09
2022-08-25T06:48:40.599Z,45.51
2022-08-25T06:49:40.588Z,44.70
2022-08-25T06:50:40.569Z,44.02
2022-08-25T06:51:40.555Z,43.94
2022-08-25T06:52:40.534Z,44.35
2022-08-25T06:53:40.536Z,45.06
2022-08-25T06:54:40.519Z,45.36
2022-08-25T06:55:40.505Z,45.43
2022-08-25T06:56:40.494Z,45.04
2022-08-25T06:57:40.483Z,44.92
2022-08-25T06:58:40.474Z,44.82
2022-08-25T06:59:41.553Z,45.80
2022-08-25T07:00:40.481Z,45.19
2022-08-25T07:01:40.669Z,44.58
2022-08-25T07:02:40.537Z,44.37
2022-08-25T07:03:40.410Z,44.29
2022-08-25T07:04:40.392Z,45.27
2022-08-25T07:05:43.733Z,44.73
2022-08-25T07:06:40.369Z,44.09
2022-08-25T07:07:43.831Z,44.98
2022-08-25T07:08:40.340Z,44.27
2022-08-25T07:09:40.326Z,44.03
2022-08-25T07:10:40.315Z,43.84
2022-08-25T07:11:40.299Z,43.44
2022-08-25T07:12:40.290Z,43.15
2022-08-25T07:13:40.277Z,42.91
2022-08-25T07:14:40.261Z,42.32
2022-08-25T07:15:41.279Z,42.38
2022-08-25T07:16:40.338Z,42.19
2022-08-25T07:17:40.222Z,42.25
2022-08-25T07:18:40.214Z,43.62
2022-08-25T07:19:40.928Z,42.52
2022-08-25T07:20:40.177Z,41.70
2022-08-25T07:21:40.173Z,41.67
2022-08-25T07:22:40.165Z,41.95
2022-08-25T07:23:40.153Z,41.09
2022-08-25T07:24:40.129Z,41.17
2022-08-25T07:25:40.125Z,41.15
2022-08-25T07:26:40.107Z,40.80
2022-08-25T07:27:41.251Z,41.28
2022-08-25T07:28:40.079Z,42.19
2022-08-25T07:29:42.685Z,42.42
2022-08-25T07:30:40.051Z,42.89
2022-08-25T07:31:40.116Z,42.19
2022-08-25T07:32:41.977Z,41.28
2022-08-25T07:33:40.021Z,41.19
2022-08-25T07:34:40.007Z,42.03
2022-08-25T07:35:39.997Z,42.44
2022-08-25T07:36:39.989Z,42.56
2022-08-25T07:37:48.877Z,42.32
2022-08-25T07:38:40.977Z,41.72
2022-08-25T07:39:39.945Z,41.41
2022-08-25T07:40:42.746Z,41.38
2022-08-25T07:41:39.920Z,41.46
2022-08-25T07:42:39.908Z,40.76
2022-08-25T07:43:39.898Z,40.39
2022-08-25T07:44:39.882Z,41.11
2022-08-25T07:45:46.911Z,42.54
2022-08-25T07:46:41.010Z,45.28
2022-08-25T07:47:39.850Z,47.80
2022-08-25T07:48:39.832Z,50.41
2022-08-25T07:49:40.082Z,50.63
2022-08-25T07:50:39.814Z,51.67
2022-08-25T07:51:39.812Z,52.61
2022-08-25T07:52:40.826Z,55.06
2022-08-25T07:53:39.776Z,55.81
2022-08-25T07:54:39.769Z,57.68
2022-08-25T07:55:39.761Z,59.03
2022-08-25T07:56:39.734Z,59.75
2022-08-25T07:57:39.726Z,60.27
2022-08-25T07:58:39.715Z,61.13
2022-08-25T07:59:40.355Z,62.55
2022-08-25T08:00:39.684Z,63.25
2022-08-25T08:01:39.721Z,63.78
2022-08-25T08:02:39.771Z,64.71
2022-08-25T08:03:50.626Z,63.94
2022-08-25T08:04:40.670Z,65.87
2022-08-25T08:05:39.619Z,66.33
2022-08-25T08:06:39.609Z,66.03
2022-08-25T08:07:43.321Z,67.33
2022-08-25T08:08:39.583Z,66.33
2022-08-25T08:09:39.568Z,67.13
2022-08-25T08:11:02.781Z,67.53
2022-08-25T08:11:45.531Z,66.33
2022-08-25T08:12:40.558Z,66.80
2022-08-25T08:13:41.493Z,65.41
2022-08-25T08:14:39.636Z,67.00
2022-08-25T08:15:39.573Z,65.01
2022-08-25T08:16:39.529Z,67.17
2022-08-25T08:17:39.462Z,67.36
2022-08-25T08:18:39.448Z,66.77
2022-08-25T08:19:44.390Z,66.87
2022-08-25T08:20:42.650Z,64.87
2022-08-25T08:21:39.404Z,65.77
2022-08-25T08:22:39.395Z,65.31
2022-08-25T08:23:39.378Z,66.00
2022-08-25T08:24:54.256Z,66.33
2022-08-25T08:25:40.393Z,68.36
2022-08-25T08:26:57.670Z,68.26
2022-08-25T08:27:40.356Z,68.40
2022-08-25T08:28:39.317Z,68.89
2022-08-25T08:29:39.301Z,69.20
2022-08-25T08:30:39.285Z,69.56
2022-08-25T08:31:39.328Z,70.46
2022-08-25T08:32:59.895Z,70.06
2022-08-25T08:33:40.927Z,70.69
2022-08-25T08:34:39.236Z,70.49
2022-08-25T08:35:39.216Z,70.59
2022-08-25T08:36:39.206Z,70.89
2022-08-25T08:37:39.193Z,69.86
2022-08-25T08:38:39.180Z,69.96
2022-08-25T08:39:39.170Z,70.19
2022-08-25T08:40:39.155Z,70.39
2022-08-25T08:42:07.209Z,69.86
2022-08-25T08:42:40.162Z,70.59
2022-08-25T08:43:39.516Z,70.09
2022-08-25T08:44:39.097Z,71.29
2022-08-25T08:45:40.580Z,70.69
2022-08-25T08:46:39.133Z,71.49
2022-08-25T08:47:39.058Z,70.99
2022-08-25T08:48:39.046Z,70.89
2022-08-25T08:49:39.032Z,71.56
2022-08-25T08:50:39.019Z,70.23
2022-08-25T08:51:39.010Z,69.73
2022-08-25T08:52:38.995Z,68.93
2022-08-25T08:53:38.981Z,68.82
2022-08-25T08:54:38.976Z,68.99
2022-08-25T08:55:38.955Z,68.29
2022-08-25T08:56:38.944Z,68.79
2022-08-25T08:57:40.038Z,68.59
2022-08-25T08:58:38.916Z,68.49
2022-08-25T08:59:38.903Z,68.79
2022-08-25T09:00:38.890Z,68.49
2022-08-25T09:01:38.922Z,69.69
2022-08-25T09:02:51.638Z,68.19
2022-08-25T09:03:39.517Z,67.40
2022-08-25T09:04:38.840Z,68.10
2022-08-25T09:05:43.789Z,69.26
2022-08-25T09:06:39.838Z,68.29
2022-08-25T09:07:38.797Z,68.99
2022-08-25T09:08:38.782Z,70.09
2022-08-25T09:09:38.775Z,69.56
2022-08-25T09:10:38.769Z,69.26
2022-08-25T09:11:38.745Z,70.53
2022-08-25T09:12:38.769Z,68.83
2022-08-25T09:13:38.724Z,67.33
2022-08-25T09:14:38.710Z,67.86
2022-08-25T09:15:41.045Z,67.66
2022-08-25T09:16:38.796Z,67.10
2022-08-25T09:17:38.673Z,68.49
2022-08-25T09:18:41.278Z,66.89
2022-08-25T09:19:42.037Z,68.23
2022-08-25T09:20:38.636Z,68.82
2022-08-25T09:21:38.621Z,69.82
2022-08-25T09:22:38.614Z,68.70
2022-08-25T09:23:38.597Z,67.90
2022-08-25T09:24:38.589Z,68.36
2022-08-25T09:25:54.389Z,66.89
2022-08-25T09:26:39.609Z,67.19
2022-08-25T09:27:38.550Z,68.43
2022-08-25T09:28:38.542Z,68.40
2022-08-25T09:29:38.533Z,68.29
2022-08-25T09:30:38.518Z,68.79
2022-08-25T09:31:38.556Z,68.29
2022-08-25T09:32:38.491Z,68.59
2022-08-25T09:33:38.481Z,68.79
2022-08-25T09:34:38.473Z,67.49
2022-08-25T09:35:38.460Z,68.79
2022-08-25T09:36:38.446Z,69.99
2022-08-25T09:37:38.428Z,70.86
2022-08-25T09:38:38.556Z,68.96
2022-08-25T09:39:38.396Z,68.43
2022-08-25T09:40:38.400Z,67.93
2022-08-25T09:41:38.385Z,67.03
2022-08-25T09:42:38.372Z,66.24
2022-08-25T09:43:38.366Z,66.27
2022-08-25T09:44:38.342Z,67.57
2022-08-25T09:45:38.341Z,66.73
2022-08-25T09:46:38.359Z,65.73
2022-08-25T09:47:38.314Z,67.73
2022-08-25T09:48:40.660Z,67.33
2022-08-25T09:49:38.313Z,66.73
2022-08-25T09:50:38.273Z,65.94
2022-08-25T09:51:43.025Z,67.03
2022-08-25T09:52:38.251Z,65.14
2022-08-25T09:53:38.237Z,65.04
2022-08-25T09:54:44.229Z,64.44
2022-08-25T09:55:39.235Z,63.84
2022-08-25T09:56:38.189Z,63.94
2022-08-25T09:57:38.178Z,64.24
2022-08-25T09:58:38.165Z,64.24
2022-08-25T09:59:38.148Z,64.64
2022-08-25T10:00:38.144Z,66.00
2022-08-25T10:01:38.182Z,66.10
2022-08-25T10:02:38.117Z,64.61
2022-08-25T10:03:38.114Z,64.61
2022-08-25T10:04:38.096Z,65.91
2022-08-25T10:05:38.081Z,65.50
2022-08-25T10:06:38.069Z,65.50
2022-08-25T10:07:38.058Z,63.91
2022-08-25T10:08:38.042Z,64.31
2022-08-25T10:09:38.039Z,65.61
2022-08-25T10:10:38.021Z,63.31
2022-08-25T10:11:38.007Z,63.31
2022-08-25T10:12:37.993Z,62.78
2022-08-25T10:13:37.985Z,62.88
2022-08-25T10:14:37.969Z,64.07
2022-08-25T10:15:38.047Z,63.58
2022-08-25T10:16:37.989Z,63.98
2022-08-25T10:17:37.936Z,61.29
2022-08-25T10:18:37.924Z,60.89
2022-08-25T10:19:37.914Z,62.18
2022-08-25T10:20:37.905Z,62.98
2022-08-25T10:21:38.925Z,61.39
2022-08-25T10:22:37.873Z,61.52
2022-08-25T10:23:37.859Z,62.21
2022-08-25T10:24:37.847Z,64.51
2022-08-25T10:25:37.839Z,65.47
2022-08-25T10:26:37.824Z,64.78
2022-08-25T10:27:37.815Z,65.47
2022-08-25T10:28:37.803Z,66.57
2022-08-25T10:29:37.794Z,64.28
2022-08-25T10:30:37.819Z,63.68
2022-08-25T10:31:37.764Z,63.45
2022-08-25T10:32:37.752Z,62.35
2022-08-25T10:33:37.747Z,62.75
2022-08-25T10:34:37.785Z,61.76
2022-08-25T10:35:37.716Z,60.46
2022-08-25T10:36:37.704Z,60.26
2022-08-25T10:37:37.694Z,60.09
2022-08-25T10:38:37.679Z,61.19
2022-08-25T10:39:40.627Z,62.18
2022-08-25T10:40:37.734Z,63.08
2022-08-25T10:41:37.643Z,64.28
2022-08-25T10:42:37.637Z,64.75
2022-08-25T10:43:37.630Z,61.66
2022-08-25T10:44:37.605Z,61.76
2022-08-25T10:45:37.594Z,61.76
2022-08-25T10:46:37.662Z,63.55
2022-08-25T10:47:37.585Z,62.95
2022-08-25T10:48:37.560Z,61.46
2022-08-25T10:49:37.550Z,61.46
2022-08-25T10:50:37.538Z,62.13
2022-08-25T10:51:37.611Z,63.42
2022-08-25T10:52:37.541Z,64.12
2022-08-25T10:53:37.497Z,63.62
2022-08-25T10:54:37.489Z,61.72
2022-08-25T10:55:40.392Z,61.13
2022-08-25T10:56:40.288Z,61.72
2022-08-25T10:57:37.465Z,61.33
2022-08-25T10:58:37.443Z,61.03
2022-08-25T10:59:37.427Z,60.24
2022-08-25T11:00:37.409Z,62.52
2022-08-25T11:01:43.702Z,61.72
2022-08-25T11:02:38.413Z,61.63
2022-08-25T11:03:37.369Z,60.93
2022-08-25T11:04:37.437Z,60.73
2022-08-25T11:05:37.394Z,60.93
2022-08-25T11:06:37.333Z,60.63
2022-08-25T11:07:37.318Z,61.23
2022-08-25T11:08:37.305Z,61.03
2022-08-25T11:09:37.296Z,61.33
2022-08-25T11:10:37.283Z,60.63
2022-08-25T11:11:37.267Z,60.53
2022-08-25T11:12:37.254Z,61.03
2022-08-25T11:13:37.248Z,60.73
2022-08-25T11:14:37.236Z,60.21
2022-08-25T11:15:37.219Z,58.81
2022-08-25T11:16:37.360Z,59.14
2022-08-25T11:17:37.207Z,60.43
2022-08-25T11:18:37.180Z,62.13
2022-08-25T11:19:37.167Z,60.33
2022-08-25T11:20:37.157Z,61.33
2022-08-25T11:21:37.150Z,60.63
2022-08-25T11:22:37.130Z,60.83
2022-08-25T11:23:38.435Z,60.24
2022-08-25T11:24:37.521Z,60.24
2022-08-25T11:25:37.093Z,61.10
2022-08-25T11:26:37.463Z,59.83
2022-08-25T11:27:37.065Z,59.83
2022-08-25T11:28:37.051Z,60.63
2022-08-25T11:29:37.043Z,61.43
2022-08-25T11:30:37.058Z,61.23
2022-08-25T11:31:37.011Z,60.83
2022-08-25T11:32:37.004Z,60.70
2022-08-25T11:33:36.985Z,60.30
2022-08-25T11:34:36.968Z,59.51
2022-08-25T11:35:38.062Z,59.70
2022-08-25T11:36:37.044Z,61.60
2022-08-25T11:37:36.929Z,60.60
2022-08-25T11:38:36.920Z,60.50
2022-08-25T11:39:36.899Z,59.78
2022-08-25T11:40:36.889Z,60.97
2022-08-25T11:41:36.894Z,60.38
2022-08-25T11:42:36.874Z,60.35
2022-08-25T11:43:36.849Z,58.36
2022-08-25T11:44:36.845Z,57.36
2022-08-25T11:45:36.823Z,57.43
2022-08-25T11:46:36.813Z,57.73
2022-08-25T11:47:36.802Z,60.82
2022-08-25T11:48:36.787Z,57.43
2022-08-25T11:49:36.794Z,58.73
2022-08-25T11:50:36.766Z,58.33
2022-08-25T11:51:36.759Z,58.86
2022-08-25T11:52:36.732Z,58.03
2022-08-25T11:53:37.690Z,57.53
2022-08-25T11:54:36.707Z,58.33
2022-08-25T11:55:36.693Z,56.64
2022-08-25T11:56:36.677Z,57.26
2022-08-25T11:57:36.669Z,57.76
2022-08-25T11:58:36.650Z,58.65
2022-08-25T11:59:36.640Z,58.53
2022-08-25T12:00:36.622Z,55.44
2022-08-25T12:01:36.613Z,57.34
2022-08-25T12:02:36.608Z,57.70
2022-08-25T12:03:36.597Z,57.11
2022-08-25T12:04:44.020Z,57.60
2022-08-25T12:05:37.688Z,57.70
2022-08-25T12:06:36.543Z,57.01
2022-08-25T12:07:36.529Z,57.41
2022-08-25T12:08:36.525Z,59.00
2022-08-25T12:09:36.506Z,56.91
2022-08-25T12:10:36.493Z,56.32
2022-08-25T12:11:36.481Z,55.42
2022-08-25T12:12:36.465Z,56.49
2022-08-25T12:13:36.459Z,57.68
2022-08-25T12:14:36.442Z,58.27
2022-08-25T12:15:36.428Z,58.25
2022-08-25T12:16:36.565Z,57.25
2022-08-25T12:17:36.405Z,54.87
2022-08-25T12:18:36.391Z,55.76
2022-08-25T12:19:36.371Z,55.96
2022-08-25T12:20:36.359Z,56.06
2022-08-25T12:21:36.357Z,56.36
2022-08-25T12:22:36.329Z,57.45
2022-08-25T12:23:36.320Z,57.15
2022-08-25T12:24:36.303Z,55.66
2022-08-25T12:25:36.297Z,54.97
2022-08-25T12:26:36.275Z,57.68
2022-08-25T12:27:36.268Z,57.38
2022-08-25T12:28:36.258Z,56.38
2022-08-25T12:29:36.243Z,55.69
2022-08-25T12:30:36.632Z,57.87
2022-08-25T12:31:36.203Z,56.46
2022-08-25T12:32:36.195Z,57.15
2022-08-25T12:33:36.189Z,58.34
2022-08-25T12:34:36.196Z,57.55
2022-08-25T12:35:36.169Z,55.17
2022-08-25T12:36:36.145Z,56.56
2022-08-25T12:37:36.137Z,58.25
2022-08-25T12:38:39.861Z,55.36
2022-08-25T12:39:37.142Z,55.34
2022-08-25T12:40:36.201Z,55.15
2022-08-25T12:41:36.085Z,55.15
2022-08-25T12:42:36.066Z,53.85
2022-08-25T12:43:37.514Z,53.06
2022-08-25T12:44:36.042Z,56.13
2022-08-25T12:45:36.087Z,54.25
2022-08-25T12:46:36.000Z,54.55
2022-08-25T12:47:36.028Z,53.06
2022-08-25T12:48:35.987Z,53.16
2022-08-25T12:49:35.982Z,54.64
2022-08-25T12:50:35.960Z,56.13
2022-08-25T12:51:35.951Z,57.03
2022-08-25T12:52:35.939Z,57.13